Nearby METAR Reports

 

KMTN - Baltimore/Martin, Maryland, USA
Distance from station: SSE 8mi, 13km
Updated: Fri, 06-May-2016 3:45pm EDT
Light rain, Overcast
Light rain, Overcast
 Wind from ENE
Wind: ENE 3 mph , 6 km/h
Temperature: 54°F , 12°C
Dew Point: 52°F , 11°C
Humidity: 94%
Barometer: 29.67 inHg , 1004.7 hPa
Summary: Light rain
Clouds: Overcast
Visibility: 10 miles , 16 km
Cloud details: Mostly cloudy 900 ft
Overcast 3200 ft
2016/05/06 19:45 KMTN 061945Z 06003KT 10SM -RA BKN009 OVC032 12/11 A2967
KDMH - Baltimore/Dwntwn, Maryland, USA
Distance from station: SW 12mi, 19km
Updated: Fri, 06-May-2016 3:54pm EDT

 
Temperature: 52°F , 11°C
Dew Point: 48°F , 9°C
Humidity: 88%
Barometer: 29.66 inHg , 1004.4 hPa
2016/05/06 19:54 KDMH 061954Z AUTO 11/09 A2966 RMK AO1 SLP043 P0006 T01110094
 
KBWI - Balto/Wash Intl, Maryland, USA
Distance from station: SSW 20mi, 33km
Updated: Fri, 06-May-2016 4:03pm EDT
Light rain, Mist, Overcast
Light rain, Mist, Overcast
 Wind from E
Wind: E 6 mph , 9 km/h
Temperature: 52°F , 11°C
Dew Point: 48°F , 9°C
Humidity: 88%
Barometer: 29.65 inHg , 1004.1 hPa
Summary: Light rain, Mist
Clouds: Overcast
Visibility: 6 miles , 10 km
Cloud details: Partly cloudy 1100 ft
Mostly cloudy 1400 ft
Overcast 5000 ft
2016/05/06 20:03 KBWI 062003Z 08005KT 6SM -RA BR SCT011 BKN014 OVC050 11/09 A2965 RMK AO2 P0001 T01110089
KDMW - Carroll Cnty, Maryland, USA
Distance from station: WNW 30mi, 48km
Updated: Fri, 06-May-2016 4:15pm EDT
Rain, Overcast
Rain, Overcast
 Wind from N
Wind: N 3 mph , 6 km/h
Temperature: 52°F , 11°C
Dew Point: 46°F , 8°C
Humidity: 82%
Barometer: 29.65 inHg , 1004.1 hPa
Summary: Rain
Clouds: Overcast
Visibility: 10 miles , 16 km
Cloud details: Partly cloudy 800 ft
Mostly cloudy 1800 ft
Overcast 4100 ft
2016/05/06 20:15 KDMW 062015Z AUTO 35003KT 10SM RA SCT008 BKN018 OVC041 11/08 A2965 RMK AO2 P0002
 
KNAK - Annapolis/Naval, Maryland, USA
Distance from station: S 30mi, 48km
Updated: Fri, 06-May-2016 3:54pm EDT
Light rain, Mist, Overcast
Light rain, Mist, Overcast
 Wind from ENE
Wind: ENE 3 mph , 6 km/h
Temperature: 52°F , 11°C
Dew Point: 48°F , 9°C
Humidity: 88%
Barometer: 29.65 inHg , 1004.1 hPa
Summary: Light rain, Mist
Clouds: Overcast
Visibility: 6 miles , 10 km
Cloud details: Few Clouds 1100 ft
Few Clouds 1900 ft
Overcast 5500 ft
2016/05/06 19:54 KNAK 061954Z AUTO 07003KT 6SM -RA BR FEW011 FEW019 OVC055 11/09 A2965 RMK AO2 SLP044 T01110089 PNO
KW29 - Stevensville, Maryland, USA
Distance from station: SSE 31mi, 50km
Updated: Fri, 06-May-2016 4:15pm EDT
Light rain, Overcast
Light rain, Overcast
 Wind from calm
Wind: Calm
Temperature: 52°F , 11°C
Dew Point: 50°F , 10°C
Humidity: 94%
Barometer: 29.65 inHg , 1004.1 hPa
Summary: Light rain
Clouds: Overcast
Visibility: 7 miles , 11 km
Cloud details: Mostly cloudy 900 ft
Overcast 1400 ft
2016/05/06 20:15 KW29 062015Z AUTO 00000KT 7SM -RA BKN009 OVC014 11/10 A2965 RMK AO2
 
KCGS - College Park, Maryland, USA
Distance from station: SW 38mi, 61km
Updated: Fri, 06-May-2016 4:15pm EDT
Overcast
Overcast
 Wind from NW
Wind: NW 6 mph , 9 km/h
Temperature: 52°F , 11°C
Dew Point: 46°F , 8°C
Humidity: 82%
Barometer: 29.65 inHg , 1004.1 hPa
Clouds: Overcast
Visibility: 7 miles , 11 km
Cloud details: Partly cloudy 1000 ft
Mostly cloudy 2800 ft
Overcast 6000 ft
2016/05/06 20:15 KCGS 062015Z AUTO 32005KT 7SM SCT010 BKN028 OVC060 11/08 A2965 RMK AO1
KGAI - Gaithersburg, Maryland, USA
Distance from station: WSW 40mi, 65km
Updated: Fri, 06-May-2016 4:15pm EDT
Mostly cloudy
Mostly cloudy
 Wind from calm
Wind: Calm
Temperature: 48°F , 9°C
Dew Point: 45°F , 7°C
Humidity: 87%
Barometer: 29.70 inHg , 1005.8 hPa
Clouds: Mostly cloudy
Visibility: 7 miles , 11 km
Cloud details: Few Clouds 900 ft
Partly cloudy 1400 ft
Mostly cloudy 1900 ft
2016/05/06 20:15 KGAI 062015Z AUTO 00000KT 7SM FEW009 SCT014 BKN019 09/07 A2970 RMK AO1 P0005
 
KTHV - York, Pennsylvania, USA
Distance from station: NNW 40mi, 65km
Updated: Fri, 06-May-2016 4:02pm EDT
Overcast
Overcast
 Wind from NNE
Wind: NNE 7 mph , 11 km/h
Temperature: 52°F , 11°C
Dew Point: 48°F , 9°C
Humidity: 88%
Barometer: 29.66 inHg , 1004.4 hPa
Clouds: Overcast
Visibility: 10 miles , 16 km
Cloud details: Partly cloudy 1400 ft
Partly cloudy 2700 ft
Overcast 3500 ft
2016/05/06 20:02 KTHV 062002Z AUTO 02006KT 10SM SCT014 SCT027 OVC035 11/09 A2966 RMK AO2 T01110094
KFDK - Frederick, Maryland, USA
Distance from station: W 47mi, 75km
Updated: Fri, 06-May-2016 3:50pm EDT
Rain, Overcast
Rain, Overcast
 Wind from N
Wind: N 6 mph , 9 km/h
Temperature: 54°F , 12°C
Dew Point: 54°F , 12°C
Humidity: 100%
Barometer: 29.70 inHg , 1005.8 hPa
Summary: Rain
Clouds: Overcast
Visibility: 4 miles , 6 km
Cloud details: Mostly cloudy 1800 ft
Overcast 2700 ft
2016/05/06 19:50 KFDK 061950Z 01005KT 4SM RA BKN018 OVC027 12/12 A2970
 
KESN - Easton/Newnam, Maryland, USA
Distance from station: SSE 48mi, 78km
Updated: Fri, 06-May-2016 3:55pm EDT
Light rain, Overcast
Light rain, Overcast
 Wind from W
Wind: W 6 mph , 9 km/h
Barometer: 29.69 inHg , 1005.4 hPa
Summary: Light rain
Clouds: Overcast
Visibility: 10 miles , 16 km
Cloud details: Mostly cloudy 700 ft
Overcast 1200 ft
2016/05/06 19:55 KESN 061955Z 28005KT 10SM -RA BKN007 OVC012 A2969
KDCA - Washington/Natl, Washington D.c., USA
Distance from station: SW 49mi, 79km
Updated: Fri, 06-May-2016 3:52pm EDT
Light rain, Overcast
Light rain, Overcast
 Wind from W
Wind: W 7 mph , 11 km/h
Temperature: 54°F , 12°C
Dew Point: 50°F , 10°C
Humidity: 88%
Barometer: 29.67 inHg , 1004.7 hPa
Summary: Light rain
Clouds: Overcast
Visibility: 10 miles , 16 km
Cloud details: Partly cloudy 1500 ft
Mostly cloudy 5000 ft
Overcast 6000 ft
2016/05/06 19:52 KDCA 061952Z 27006KT 10SM -RA SCT015 BKN050 OVC060 12/10 A2967 RMK AO2 SLP048 P0002 T01220100
 
KLNS - Lancaster, Pennsylvania, USA
Distance from station: N 49mi, 79km
Updated: Fri, 06-May-2016 3:53pm EDT
Overcast
Overcast
 Wind from NNE
Wind: NNE 12 mph , 19 km/h
Temperature: 52°F , 11°C
Dew Point: 50°F , 10°C
Humidity: 94%
Barometer: 29.65 inHg , 1004.1 hPa
Clouds: Overcast
Visibility: 10 miles , 16 km
Cloud details: Few Clouds 1300 ft
Mostly cloudy 2400 ft
Overcast 4200 ft
2016/05/06 19:53 KLNS 061953Z 03010KT 10SM FEW013 BKN024 OVC042 11/10 A2965 RMK AO2 RAB13E49 SLP041 P0001 T01110100
KILG - Wilmington, Delaware, USA
Distance from station: ENE 50mi, 81km
Updated: Fri, 06-May-2016 4:07pm EDT
Light rain, Mist, Overcast
Light rain, Mist, Overcast
 Wind from NE
Wind: NE 12 mph , 19 km/h
Temperature: 52°F , 11°C
Dew Point: 48°F , 9°C
Humidity: 88%
Barometer: 29.64 inHg , 1003.7 hPa
Summary: Light rain, Mist
Clouds: Overcast
Visibility: 3 miles , 5 km
Cloud details: Overcast 1400 ft
2016/05/06 20:07 KILG 062007Z 04010KT 3SM -RA BR OVC014 11/09 A2964 RMK AO2 P0000 T01110089 $